Time;durP1;ratioP1;P1;durP2;ratioP2;P2;SDS_P1;SDS_P2;PMS_P1;PMS_P2;Temp;Humidity;BMP_temperature;BMP_pressure;BME280_temperature;BME280_humidity;BME280_pressure;Samples;Min_cycle;Max_cycle;Signal;HPM_P1;HPM_P2
2021/01/08 00:02:04;;;;;;;54.17;27.13;;;1.70;99.90;;;-143.32;100.00;97737.06;4953020;28;20460;-92
2021/01/08 00:05:13;;;;;;;53.90;26.90;;;1.70;99.90;;;-143.32;100.00;97735.03;4971242;29;20477;-91
2021/01/08 00:08:06;;;;;;;59.10;28.73;;;1.70;99.90;;;-143.32;100.00;97749.34;4957754;29;20532;-93
2021/01/08 00:10:54;;;;;;;52.53;25.03;;;1.80;99.90;;;-143.32;100.00;97718.66;4971749;29;20492;-90
2021/01/08 00:13:31;;;;;;;53.63;26.60;;;1.70;99.90;;;-143.32;100.00;97724.81;4899338;29;20449;-93
2021/01/08 00:19:50;;;;;;;;;;;;;;;;;;;;;
2021/01/08 00:37:30;;;;;;;;;;;;;;;;;;;;;
2021/01/08 00:54:24;;;;;;;41.03;17.80;;;1.80;99.90;;;-143.32;100.00;97708.44;4948675;29;20552;-90
2021/01/08 00:57:23;;;;;;;38.33;18.30;;;1.80;99.90;;;-143.32;100.00;97716.63;4955787;29;20967;-91
2021/01/08 01:00:06;;;;;;;38.27;16.97;;;1.80;99.90;;;-143.32;100.00;97726.84;4951618;29;20456;-89
2021/01/08 01:02:38;;;;;;;35.00;17.23;;;1.80;99.90;;;-143.32;100.00;97732.97;4956743;29;20441;-88
2021/01/08 01:12:32;;;;;;;39.57;16.90;;;1.80;99.90;;;-143.32;100.00;97720.72;4909985;29;20487;-89
2021/01/08 01:15:25;;;;;;;36.80;16.67;;;1.80;99.90;;;-143.32;100.00;97687.97;4956699;29;20528;-89
2021/01/08 01:18:01;;;;;;;42.67;18.37;;;1.80;99.90;;;-143.32;100.00;97708.44;4955909;29;20796;-90
2021/01/08 05:22:46;;;;;;;31.80;13.53;;;1.80;99.90;;;-143.32;100.00;97712.53;5169823;23;20495;-92
2021/01/08 05:25:23;;;;;;;31.13;13.33;;;1.70;99.90;;;-143.32;100.00;97747.31;4984108;28;20938;-92
2021/01/08 05:27:51;;;;;;;34.53;14.60;;;1.70;99.90;;;-143.32;100.00;97683.88;4987211;28;20487;-91
2021/01/08 05:30:27;;;;;;;29.20;13.40;;;1.70;99.90;;;-143.32;100.00;97718.66;4967729;28;20503;-91
2021/01/08 05:32:59;;;;;;;28.90;13.27;;;1.70;99.90;;;-143.32;100.00;97761.63;4986029;28;20498;-92
2021/01/08 05:35:28;;;;;;;30.07;13.77;;;1.70;99.90;;;-143.32;100.00;97763.66;4986772;28;20471;-92
2021/01/08 05:38:13;;;;;;;32.63;14.27;;;1.70;99.90;;;-143.32;100.00;97747.31;4983253;28;20546;-92
2021/01/08 05:40:52;;;;;;;26.77;13.00;;;1.70;99.90;;;-143.32;100.00;97745.25;4982157;28;20535;-92
2021/01/08 05:43:21;;;;;;;24.67;12.20;;;1.80;99.90;;;-143.32;100.00;97763.66;4983359;28;20516;-91
2021/01/08 05:45:50;;;;;;;22.33;11.43;;;1.60;99.90;;;-143.32;100.00;97745.25;4982075;28;20455;-92
2021/01/08 05:48:21;;;;;;;23.50;10.93;;;1.70;99.90;;;-143.32;100.00;97741.16;4980969;28;20542;-92
2021/01/08 05:50:55;;;;;;;31.07;13.17;;;1.70;99.90;;;-143.32;100.00;97714.56;4978637;28;20514;-92
2021/01/08 05:53:38;;;;;;;28.77;13.97;;;1.70;99.90;;;-143.32;100.00;97724.81;4981865;28;20447;-92
2021/01/08 05:56:14;;;;;;;32.23;13.80;;;1.70;99.90;;;-143.32;100.00;97718.66;4982829;28;20436;-92
2021/01/08 05:58:45;;;;;;;29.43;13.57;;;1.70;99.90;;;-143.32;100.00;97739.13;4980804;28;21055;-93
2021/01/08 06:01:19;;;;;;;31.03;12.97;;;1.60;99.90;;;-143.32;100.00;97722.75;4984428;28;20531;-91
2021/01/08 06:03:50;;;;;;;29.77;13.30;;;1.60;99.90;;;-143.32;100.00;97739.13;4985207;28;20451;-92
2021/01/08 06:09:04;;;;;;;26.47;11.97;;;1.60;99.90;;;-143.32;100.00;97737.06;5300721;23;20498;-92
2021/01/08 06:11:43;;;;;;;38.77;13.70;;;1.60;99.90;;;-143.32;100.00;97706.38;4984950;28;20458;-92
2021/01/08 06:14:17;;;;;;;28.10;13.10;;;1.70;99.90;;;-143.32;100.00;97730.94;4984336;28;20518;-92
2021/01/08 06:16:48;;;;;;;36.77;14.20;;;1.70;99.90;;;-143.32;100.00;97739.13;4985800;28;20474;-92
2021/01/08 06:19:30;;;;;;;35.80;13.90;;;1.70;99.90;;;-143.32;100.00;97700.25;4988445;28;20470;-92
2021/01/08 06:22:09;;;;;;;33.13;13.50;;;1.70;99.90;;;-143.32;100.00;97751.41;4985842;28;20413;-92
2021/01/08 06:24:44;;;;;;;33.53;15.47;;;1.80;99.90;;;-143.32;100.00;97743.22;4985343;28;20693;-92
2021/01/08 06:27:15;;;;;;;34.97;14.53;;;1.80;99.90;;;-143.32;100.00;97747.31;4983750;28;20482;-92
2021/01/08 06:30:03;;;;;;;28.53;13.80;;;1.80;99.90;;;-143.32;100.00;97741.16;4983860;28;20470;-92
2021/01/08 06:32:35;;;;;;;45.73;14.50;;;1.70;99.90;;;-143.32;100.00;97718.66;4983564;28;20452;-92
2021/01/08 06:35:08;;;;;;;29.77;14.20;;;1.70;99.90;;;-143.32;100.00;97745.25;4984668;28;20463;-91
2021/01/08 06:51:06;;;;;;;;;;;;;;;;;;;;;
2021/01/08 07:19:56;;;;;;;27.13;12.33;;;1.40;99.90;;;-143.32;100.00;97730.94;4925354;29;20459;-93
2021/01/08 07:26:14;;;;;;;31.77;12.50;;;1.40;99.90;;;-143.32;100.00;97755.50;4977504;28;20412;-92
2021/01/08 07:32:35;;;;;;;29.13;11.40;;;1.30;99.90;;;-143.32;100.00;97735.03;4978346;28;20504;-96
2021/01/08 07:35:16;;;;;;;27.57;11.40;;;1.30;99.90;;;-143.32;100.00;97749.34;4979115;28;20837;-91
2021/01/08 07:41:13;;;;;;;30.40;12.27;;;1.40;99.90;;;-143.32;100.00;97749.34;4978641;28;20535;-93
2021/01/08 07:47:28;;;;;;;28.70;11.70;;;1.40;99.90;;;-143.32;100.00;97722.75;4977891;28;20471;-93
2021/01/08 07:50:24;;;;;;;30.07;12.07;;;1.40;99.90;;;-143.32;100.00;97759.59;4977781;28;20457;-94
2021/01/08 07:52:59;;;;;;;22.87;11.10;;;1.40;99.90;;;-143.32;100.00;97741.16;4950378;28;20456;-93
2021/01/08 07:56:09;;;;;;;32.60;12.03;;;1.40;99.90;;;-143.32;100.00;97757.53;4978419;28;20444;-92
2021/01/08 07:58:37;;;;;;;26.17;11.77;;;1.40;99.90;;;-143.32;100.00;97737.06;4942240;28;20506;-93
2021/01/08 08:01:06;;;;;;;23.30;10.27;;;1.40;99.90;;;-143.32;100.00;97702.28;4976964;28;20811;-91
2021/01/08 08:03:39;;;;;;;27.13;10.70;;;1.40;99.90;;;-143.32;100.00;97728.88;4977214;28;20441;-90
2021/01/08 08:06:52;;;;;;;28.40;10.90;;;1.50;99.90;;;-143.32;100.00;97730.94;4977285;28;20938;-92
2021/01/08 08:09:55;;;;;;;28.87;10.97;;;1.50;99.90;;;-143.32;100.00;97745.25;4976540;28;20515;-91
2021/01/08 08:12:29;;;;;;;23.30;9.97;;;1.50;99.90;;;-143.32;100.00;97757.53;4978128;28;20470;-90
2021/01/08 08:22:24;;;;;;;25.97;11.40;;;1.50;99.90;;;-143.32;100.00;97724.81;4976169;28;20483;-90
2021/01/08 08:25:30;;;;;;;21.07;10.20;;;1.50;99.90;;;-143.32;100.00;97737.06;4959338;28;20547;-90
2021/01/08 08:32:53;;;;;;;37.13;13.43;;;1.50;99.90;;;-143.32;100.00;97732.97;4975793;28;20407;-92
2021/01/08 08:38:57;;;;;;;40.27;15.10;;;1.50;99.90;;;-143.32;100.00;97720.72;4956114;28;20487;-91
2021/01/08 08:42:20;;;;;;;;;;;;;;;;;;;;;
2021/01/08 08:49:33;;;;;;;25.37;11.10;;;1.70;99.90;;;-143.32;100.00;97751.41;4897178;29;20579;-89
2021/01/08 08:59:43;;;;;;;27.53;10.93;;;1.70;99.90;;;-143.32;100.00;97708.44;4873232;29;20439;-92
2021/01/08 09:02:32;;;;;;;21.50;10.57;;;1.70;99.90;;;-143.32;100.00;97726.84;4936391;28;20546;-90
2021/01/08 09:05:50;;;;;;;23.73;10.47;;;1.70;99.90;;;-143.32;100.00;97730.94;4975395;28;20460;-91
2021/01/08 09:11:42;;;;;;;24.40;10.47;;;1.70;99.90;;;-143.32;100.00;97726.84;4969094;28;20474;-93
2021/01/08 09:14:30;;;;;;;24.90;10.10;;;1.80;99.90;;;-143.32;100.00;97712.53;4975559;28;20452;-90
2021/01/08 09:17:45;;;;;;;23.60;9.90;;;1.70;99.90;;;-143.32;100.00;97751.41;4975812;28;20558;-92
2021/01/08 09:23:34;;;;;;;28.23;10.83;;;1.90;99.90;;;-143.32;100.00;97683.88;4972035;28;20448;-92
2021/01/08 09:47:58;;;;;;;25.13;9.87;;;2.10;99.90;;;-143.32;100.00;97741.16;4822629;29;20956;-90
2021/01/08 09:50:34;;;;;;;18.97;8.93;;;2.10;99.90;;;-143.32;100.00;97718.66;4877830;29;20425;-90
2021/01/08 09:53:23;;;;;;;20.00;8.60;;;2.20;99.90;;;-143.32;100.00;97677.75;4973371;28;20451;-93
2021/01/08 09:55:50;;;;;;;20.00;9.73;;;2.30;99.90;;;-143.32;100.00;97694.13;4975179;28;20548;-89
2021/01/08 09:58:18;;;;;;;18.23;8.93;;;2.40;99.90;;;-143.32;100.00;97687.97;4974742;28;20543;-88
2021/01/08 10:00:50;;;;;;;15.00;8.03;;;2.50;99.90;;;-143.32;100.00;97677.75;4974841;28;20448;-92
2021/01/08 10:03:21;;;;;;;19.90;9.60;;;2.50;99.90;;;-143.32;100.00;97671.59;4974764;28;20440;-89
2021/01/08 10:05:48;;;;;;;17.20;8.80;;;2.40;99.90;;;-143.32;100.00;97698.19;4957570;28;20494;-88
2021/01/08 10:08:22;;;;;;;17.97;8.67;;;2.50;99.90;;;-143.32;100.00;97675.69;4974753;28;20487;-88
2021/01/08 10:10:49;;;;;;;35.30;8.70;;;2.50;99.90;;;-143.32;100.00;97714.56;4974542;28;20459;-87
2021/01/08 10:13:20;;;;;;;18.27;9.20;;;2.50;99.90;;;-143.32;100.00;97716.63;4974780;28;20954;-88
2021/01/08 10:15:50;;;;;;;17.00;9.60;;;2.50;99.90;;;-143.32;100.00;97724.81;4974427;28;20949;-90
2021/01/08 10:18:26;;;;;;;17.60;9.53;;;2.50;99.90;;;-143.32;100.00;97712.53;4974663;28;20969;-88
2021/01/08 10:20:55;;;;;;;18.27;9.10;;;2.50;99.90;;;-143.32;100.00;97685.94;4975349;28;20440;-90
2021/01/08 10:23:23;;;;;;;13.37;8.20;;;2.60;99.90;;;-143.32;100.00;97679.78;4974584;28;20843;-89
2021/01/08 10:25:51;;;;;;;16.00;9.00;;;2.50;99.90;;;-143.32;100.00;97677.75;4974392;28;20506;-88
2021/01/08 10:28:23;;;;;;;16.47;10.10;;;2.60;99.90;;;-143.32;100.00;97683.88;4974125;28;20500;-87
2021/01/08 10:30:52;;;;;;;12.20;7.67;;;2.60;99.90;;;-143.32;100.00;97702.28;4974492;28;20460;-88
2021/01/08 10:33:23;;;;;;;14.53;8.40;;;2.60;99.90;;;-143.32;100.00;97687.97;4974554;28;20459;-89
2021/01/08 10:35:52;;;;;;;12.53;8.40;;;2.60;99.90;;;-143.32;100.00;97694.13;4974509;28;20424;-88
2021/01/08 10:38:21;;;;;;;12.03;7.50;;;2.60;99.90;;;-143.32;100.00;97681.84;4974410;28;20507;-89
2021/01/08 10:40:48;;;;;;;12.97;8.07;;;2.60;99.90;;;-143.32;100.00;97710.47;4974413;28;20486;-90
2021/01/08 10:43:16;;;;;;;12.90;8.30;;;2.60;99.90;;;-143.32;100.00;97604.09;4974409;28;20451;-88
2021/01/08 10:45:43;;;;;;;13.30;7.87;;;2.90;99.90;;;-143.32;100.00;97681.84;4974397;28;20452;-90
2021/01/08 10:48:13;;;;;;;13.73;8.23;;;2.70;99.90;;;-143.32;100.00;97692.06;4973956;28;21001;-90
2021/01/08 10:50:39;;;;;;;19.23;9.97;;;2.70;99.90;;;-143.32;100.00;97685.94;4974271;28;20829;-88
2021/01/08 10:53:06;;;;;;;17.97;9.80;;;2.70;99.90;;;-143.32;100.00;97718.66;4974153;28;20934;-88
2021/01/08 10:55:33;;;;;;;13.97;8.43;;;2.70;99.90;;;-143.32;100.00;97638.88;4974136;28;20448;-89
2021/01/08 10:58:00;;;;;;;16.97;8.30;;;2.80;99.90;;;-143.32;100.00;97692.06;4974218;28;20448;-87
2021/01/08 11:00:29;;;;;;;10.83;6.90;;;2.80;99.90;;;-143.32;100.00;97675.69;4975561;28;20487;-91
2021/01/08 11:02:57;;;;;;;10.90;6.90;;;2.80;99.90;;;-143.32;100.00;97732.97;4977613;28;20455;-87
2021/01/08 11:05:52;;;;;;;12.67;7.37;;;2.80;99.90;;;-143.32;100.00;97685.94;4978136;28;20449;-87
2021/01/08 11:15:29;;;;;;;11.17;6.63;;;2.70;99.90;;;-143.32;100.00;97659.31;4807173;29;20452;-87
2021/01/08 11:17:55;;;;;;;12.73;6.20;;;2.60;99.90;;;-143.32;100.00;97683.88;4799559;29;20602;-88
2021/01/08 11:24:04;;;;;;;11.20;7.33;;;2.50;99.90;;;-143.32;100.00;97671.59;4806759;29;20535;-90
2021/01/08 11:26:31;;;;;;;12.30;7.33;;;2.60;99.90;;;-143.32;100.00;97669.56;4936428;28;20440;-89
2021/01/08 11:28:58;;;;;;;7.27;5.30;;;2.60;99.90;;;-143.32;100.00;97694.13;4977992;28;20495;-89
2021/01/08 11:31:31;;;;;;;10.43;6.90;;;2.60;99.90;;;-143.32;100.00;97718.66;4976835;28;20432;-89
2021/01/08 11:33:59;;;;;;;13.17;6.83;;;2.60;99.90;;;-143.32;100.00;97687.97;4977766;28;20539;-88
2021/01/08 11:36:29;;;;;;;12.10;7.00;;;2.60;99.90;;;-143.32;100.00;97671.59;4977328;28;20452;-92
2021/01/08 11:38:59;;;;;;;14.80;5.97;;;2.60;99.90;;;-143.32;100.00;97642.97;4977775;28;20535;-90
2021/01/08 11:41:27;;;;;;;9.83;6.47;;;2.70;99.90;;;-143.32;100.00;97726.84;4977312;28;20547;-92
2021/01/08 11:43:57;;;;;;;12.10;6.63;;;2.70;99.90;;;-143.32;100.00;97669.56;4976790;28;20451;-94
2021/01/08 11:46:26;;;;;;;10.57;6.67;;;2.70;99.90;;;-143.32;100.00;97661.38;4977647;28;20938;-93
2021/01/08 11:52:32;;;;;;;11.73;6.57;;;2.60;99.90;;;-143.32;100.00;97667.50;5731365;23;20484;-92
2021/01/08 11:55:08;;;;;;;10.70;7.50;;;2.40;99.90;;;-143.32;100.00;97700.25;4977439;28;20523;-92
2021/01/08 12:02:26;;;;;;;11.47;6.90;;;2.60;99.90;;;-143.32;100.00;97657.28;4898571;29;20612;-89
2021/01/08 12:04:59;;;;;;;10.83;7.27;;;2.70;99.90;;;-143.32;100.00;97661.38;4968739;28;20498;-92
2021/01/08 12:07:28;;;;;;;10.50;7.33;;;2.60;99.90;;;-143.32;100.00;97685.94;4977240;28;20795;-90
2021/01/08 12:24:40;;;;;;;10.80;6.93;;;2.80;99.90;;;-143.32;100.00;97718.66;4879451;29;20442;-91
2021/01/08 12:27:20;;;;;;;12.20;8.00;;;2.80;99.90;;;-143.32;100.00;97659.31;4897943;29;20456;-93
2021/01/08 13:26:47;;;;;;;;;;;;;;;;;;;;;
2021/01/08 14:18:03;;;;;;;12.80;8.50;;;2.50;99.90;;;-143.32;100.00;97671.59;5072196;23;20487;-93
2021/01/08 14:20:30;;;;;;;15.43;8.73;;;2.60;99.90;;;-143.32;100.00;97696.16;4975199;28;20440;-93
2021/01/08 14:22:59;;;;;;;12.53;8.13;;;2.60;99.90;;;-143.32;100.00;97716.63;4975995;28;20547;-93
2021/01/08 14:25:32;;;;;;;14.97;8.50;;;2.50;99.90;;;-143.32;100.00;97683.88;4975814;28;20947;-94
2021/01/08 14:28:16;;;;;;;14.80;8.73;;;2.60;99.90;;;-143.32;100.00;97687.97;4974918;28;20503;-92
2021/01/08 14:31:46;;;;;;;;;;;;;;;;;;;;;
2021/01/08 14:34:19;;;;;;;17.10;8.33;;;2.50;99.90;;;-143.32;100.00;97706.38;4936617;28;20839;-92
2021/01/08 14:36:48;;;;;;;12.77;8.73;;;2.50;99.90;;;-143.32;100.00;97663.41;4979573;28;20819;-94
2021/01/08 14:41:56;;;;;;;14.23;9.97;;;2.50;99.90;;;-143.32;100.00;97679.78;5397126;23;21002;-90
2021/01/08 14:48:06;;;;;;;11.90;8.13;;;2.30;99.90;;;-143.32;100.00;97716.63;4982225;28;20559;-91
2021/01/08 14:50:33;;;;;;;15.27;9.00;;;2.50;99.90;;;-143.32;100.00;97712.53;4978752;28;20806;-93
2021/01/08 14:53:06;;;;;;;13.70;8.30;;;2.50;99.90;;;-143.32;100.00;97694.13;4982392;28;20531;-95
2021/01/08 14:59:16;;;;;;;13.97;9.30;;;2.50;99.90;;;-143.32;100.00;97704.34;4988196;28;20467;-93
2021/01/08 15:01:57;;;;;;;;;;;;;;;;;;;;;
2021/01/08 15:04:32;;;;;;;15.50;9.93;;;2.50;99.90;;;-143.32;100.00;97681.84;4982749;28;20856;-94
2021/01/08 15:06:59;;;;;;;19.03;10.10;;;2.40;99.90;;;-143.32;100.00;97730.94;4981574;28;20456;-92
2021/01/08 15:09:29;;;;;;;13.77;9.43;;;2.50;99.90;;;-143.32;100.00;97700.25;4982453;28;20802;-92
2021/01/08 15:12:00;;;;;;;16.10;10.20;;;2.60;99.90;;;-143.32;100.00;97669.56;4978415;28;20439;-92
2021/01/08 15:14:27;;;;;;;15.17;9.70;;;2.60;99.90;;;-143.32;100.00;97636.81;4982228;28;20416;-94
2021/01/08 15:16:54;;;;;;;15.83;9.40;;;2.60;99.90;;;-143.32;100.00;97679.78;4982657;28;20440;-94
2021/01/08 15:19:34;;;;;;;15.10;9.80;;;2.60;99.90;;;-143.32;100.00;97710.47;4984284;28;20466;-93
2021/01/08 15:22:03;;;;;;;15.33;9.47;;;2.60;99.90;;;-143.32;100.00;97687.97;4984570;28;20459;-92
2021/01/08 15:24:30;;;;;;;12.83;7.97;;;2.60;99.90;;;-143.32;100.00;97685.94;4983376;28;20483;-93
2021/01/08 15:26:59;;;;;;;14.63;8.97;;;2.60;99.90;;;-143.32;100.00;97673.66;4980898;28;20547;-92
2021/01/08 15:29:38;;;;;;;15.00;9.52;;;2.60;99.90;;;-143.32;100.00;97626.59;4984352;28;20463;-92
2021/01/08 15:32:14;;;;;;;12.37;7.87;;;2.60;99.90;;;-143.32;100.00;97698.19;4989351;28;20255;-94
2021/01/08 15:34:47;;;;;;;12.60;8.90;;;2.60;99.90;;;-143.32;100.00;97726.84;4987654;28;20451;-92
2021/01/08 15:37:14;;;;;;;14.60;9.00;;;2.60;99.90;;;-143.32;100.00;97741.16;4986025;28;20499;-91
2021/01/08 15:40:17;;;;;;;16.13;9.57;;;2.60;99.90;;;-143.32;100.00;97696.16;4980656;28;20448;-92
2021/01/08 15:53:21;;;;;;;14.27;8.23;;;2.30;99.90;;;-143.32;100.00;97720.72;4978710;28;20467;-90
2021/01/08 15:55:50;;;;;;;16.30;10.33;;;2.10;99.90;;;-143.32;100.00;97704.34;4977150;28;20444;-92
2021/01/08 16:54:44;;;;;;;38.10;13.60;;;0.80;99.90;;;-143.32;100.00;97745.25;4771825;30;20527;-92
2021/01/08 16:57:12;;;;;;;26.93;14.27;;;0.90;99.90;;;-143.32;100.00;97737.06;4818153;29;20502;-92
2021/01/08 16:59:42;;;;;;;26.97;14.43;;;0.80;99.90;;;-143.32;100.00;97790.28;4896883;29;20456;-92
2021/01/08 17:28:53;;;;;;;41.83;21.40;;;0.50;99.90;;;-143.32;100.00;97804.59;4786131;30;20558;-91
2021/01/08 17:31:27;;;;;;;36.90;19.03;;;0.40;99.90;;;-143.32;100.00;97773.91;4837599;29;20464;-91
2021/01/08 17:33:56;;;;;;;36.70;17.53;;;0.40;99.90;;;-143.32;100.00;97818.91;4828260;29;20513;-93
2021/01/08 17:36:25;;;;;;;32.43;17.30;;;0.30;99.90;;;-143.32;100.00;97782.09;4825648;29;20444;-92
2021/01/08 17:38:52;;;;;;;34.67;16.93;;;0.30;99.90;;;-143.32;100.00;97786.19;4826292;29;20813;-90
2021/01/08 17:41:19;;;;;;;33.10;17.03;;;0.40;99.90;;;-143.32;100.00;97808.69;4905412;28;20471;-91
2021/01/08 17:44:08;;;;;;;38.10;16.73;;;0.30;99.90;;;-143.32;100.00;97769.81;4984281;28;20488;-92
2021/01/08 18:06:49;;;;;;;38.23;19.60;;;0.30;99.90;;;-143.32;100.00;97747.31;5462738;23;20528;-93
2021/01/08 18:09:15;;;;;;;39.40;19.73;;;0.20;99.90;;;-143.32;100.00;97769.81;4938868;28;20492;-91
2021/01/08 18:11:42;;;;;;;42.17;19.17;;;0.20;99.90;;;-143.32;100.00;97767.75;4978599;28;20988;-92
2021/01/08 18:14:09;;;;;;;46.33;18.60;;;0.20;99.90;;;-143.32;100.00;97800.50;4978734;28;20463;-91
2021/01/08 18:16:39;;;;;;;42.30;19.20;;;0.10;99.90;;;-143.32;100.00;97798.47;4978745;28;20448;-90
2021/01/08 18:19:06;;;;;;;39.87;17.90;;;0.10;99.90;;;-143.32;100.00;97810.72;4978845;28;20451;-90
2021/01/08 18:21:36;;;;;;;42.73;18.40;;;0.10;99.90;;;-143.32;100.00;97792.31;4978674;28;20448;-90
2021/01/08 18:24:07;;;;;;;34.10;17.57;;;0.10;99.90;;;-143.32;100.00;97778.00;4978767;28;20511;-91
2021/01/08 18:26:37;;;;;;;31.43;16.20;;;0.10;99.90;;;-143.32;100.00;97790.28;4979392;28;20772;-93
2021/01/08 18:29:07;;;;;;;39.53;18.23;;;0.10;99.90;;;-143.32;100.00;97778.00;4979051;28;20518;-91
2021/01/08 18:31:35;;;;;;;39.57;18.37;;;0.20;99.90;;;-143.32;100.00;97800.50;4978934;28;20459;-91
2021/01/08 18:34:05;;;;;;;43.33;21.20;;;0.20;99.90;;;-143.32;100.00;97802.53;4979062;28;20514;-91
2021/01/08 18:36:35;;;;;;;50.10;23.37;;;0.10;99.90;;;-143.32;100.00;97769.81;4978304;28;20460;-93
2021/01/08 18:39:04;;;;;;;45.63;22.20;;;0.00;99.90;;;-143.32;100.00;97804.59;4979226;28;20444;-91
2021/01/08 18:41:31;;;;;;;41.60;20.00;;;-0.10;99.90;;;-143.32;100.00;97792.31;4978219;28;20464;-92
2021/01/08 18:44:03;;;;;;;40.10;21.30;;;-0.10;99.90;;;-143.32;100.00;97792.31;4979146;28;20456;-92
2021/01/08 18:46:38;;;;;;;46.53;21.83;;;-0.20;99.90;;;-143.32;100.00;97833.25;4979063;28;20930;-90
2021/01/08 18:49:07;;;;;;;41.13;19.60;;;-0.20;99.90;;;-143.32;100.00;97794.38;4980537;28;20533;-90
2021/01/08 18:51:46;;;;;;;42.37;20.57;;;-0.20;99.90;;;-143.32;100.00;97804.59;4979300;28;20440;-91
2021/01/08 18:54:12;;;;;;;39.30;18.97;;;-0.20;99.90;;;-143.32;100.00;97786.19;4978797;28;20452;-91
2021/01/08 18:56:40;;;;;;;34.57;18.80;;;-0.10;99.90;;;-143.32;100.00;97798.47;4978845;28;20443;-93
2021/01/08 18:59:09;;;;;;;38.70;18.80;;;-0.20;99.90;;;-143.32;100.00;97794.38;4979827;28;20452;-91
2021/01/08 19:01:37;;;;;;;39.00;20.20;;;-0.20;99.90;;;-143.32;100.00;97800.50;4978655;28;20439;-92
2021/01/08 19:04:23;;;;;;;40.77;19.63;;;-0.20;99.90;;;-143.32;100.00;97823.00;4980422;28;20472;-91
2021/01/08 19:07:34;;;;;;;45.40;18.90;;;-0.20;99.90;;;-143.32;100.00;97827.09;4980148;28;20526;-90
2021/01/08 19:10:54;;;;;;;40.10;19.03;;;-0.20;99.90;;;-143.32;100.00;97798.47;4979548;28;20484;-90
2021/01/08 19:16:13;;;;;;;51.27;21.20;;;-0.10;99.90;;;-143.32;100.00;97800.50;4964977;28;20466;-92
2021/01/08 19:18:40;;;;;;;41.83;22.50;;;-0.10;99.90;;;-143.32;100.00;97825.06;4977839;28;20432;-92
2021/01/08 19:21:12;;;;;;;52.87;22.17;;;-0.10;99.90;;;-143.32;100.00;97806.63;4977725;28;20523;-91
2021/01/08 19:23:44;;;;;;;47.93;21.17;;;-0.10;99.90;;;-143.32;100.00;97820.97;4977612;28;20491;-90
2021/01/08 19:26:56;;;;;;;52.60;23.47;;;-0.20;99.90;;;-143.32;100.00;97825.06;4977627;28;20507;-90
2021/01/08 19:34:07;;;;;;;48.37;19.60;;;-0.20;99.90;;;-143.32;100.00;97843.47;4887937;28;20405;-90
2021/01/08 19:47:42;;;;;;;53.33;22.00;;;-0.40;99.90;;;-143.32;100.00;97820.97;4877499;29;20439;-91
2021/01/08 19:50:11;;;;;;;211.27;52.00;;;-0.40;99.90;;;-143.32;100.00;97818.91;4918725;28;20495;-89
2021/01/08 19:53:24;;;;;;;70.27;27.23;;;-0.30;99.90;;;-143.32;100.00;97780.03;4984287;28;20448;-93
2021/01/08 19:56:57;;;;;;;58.40;25.70;;;-0.20;99.90;;;-143.32;100.00;97792.31;4981869;28;20452;-93
2021/01/08 19:59:28;;;;;;;65.60;27.33;;;-0.20;99.90;;;-143.32;100.00;97810.72;4976654;28;20452;-91
2021/01/08 20:02:09;;;;;;;67.70;28.13;;;0.00;99.90;;;-143.32;100.00;97827.09;4978443;28;20420;-92
2021/01/08 20:04:42;;;;;;;61.93;28.20;;;0.00;99.90;;;-143.32;100.00;97790.28;4981053;28;20409;-90
2021/01/08 20:07:53;;;;;;;;;;;;;;;;;;;;;
2021/01/08 20:10:38;;;;;;;65.87;28.60;;;0.10;99.90;;;-143.32;100.00;97767.75;4980963;28;20522;-94
2021/01/08 20:16:48;;;;;;;70.37;28.97;;;0.20;99.90;;;-143.32;100.00;97753.44;4978998;28;20412;-89
2021/01/08 20:19:15;;;;;;;66.27;28.53;;;0.30;99.90;;;-143.32;100.00;97784.13;4977996;28;20460;-91
2021/01/08 21:01:53;;;;;;;50.87;22.17;;;0.20;99.90;;;-143.32;100.00;97796.41;4954721;28;20861;-92
2021/01/08 21:04:20;;;;;;;55.53;22.63;;;0.10;99.90;;;-143.32;100.00;97800.50;4959861;29;20453;-92
2021/01/08 21:17:59;;;;;;;47.77;20.17;;;0.60;99.90;;;-143.32;100.00;97773.91;4910514;29;20980;-90
2021/01/08 21:20:28;;;;;;;49.93;20.90;;;0.40;99.90;;;-143.32;100.00;97784.13;4896852;29;20456;-89
2021/01/08 21:23:14;;;;;;;54.43;22.30;;;0.50;99.90;;;-143.32;100.00;97778.00;4896645;29;20447;-90
2021/01/08 21:25:41;;;;;;;56.17;22.33;;;0.50;99.90;;;-143.32;100.00;97792.31;4897153;29;20479;-88
2021/01/08 21:28:12;;;;;;;51.37;20.70;;;0.50;99.90;;;-143.32;100.00;97775.94;4896534;29;20547;-88
2021/01/08 21:30:41;;;;;;;53.50;22.50;;;0.50;99.90;;;-143.32;100.00;97786.19;4933070;28;20451;-89
2021/01/08 21:56:29;;;;;;;46.37;22.07;;;0.40;99.90;;;-143.32;100.00;97786.19;5351927;23;20494;-90
2021/01/08 22:05:39;;;;;;;49.80;21.00;;;0.40;99.90;;;-143.32;100.00;97761.63;4897510;29;20624;-89
2021/01/08 22:08:06;;;;;;;48.80;21.63;;;0.50;99.90;;;-143.32;100.00;97771.84;4943949;28;20542;-89
2021/01/08 22:20:57;;;;;;;46.00;19.73;;;0.70;99.90;;;-143.32;100.00;97773.91;6076013;23;20376;31
2021/01/08 22:23:25;;;;;;;50.30;21.67;;;0.70;99.90;;;-143.32;100.00;97757.53;4972474;28;20935;-90
2021/01/08 22:31:30;;;;;;;46.47;20.80;;;0.70;99.90;;;-143.32;100.00;97767.75;5899091;23;20485;-88
2021/01/08 22:33:57;;;;;;;45.03;20.23;;;0.70;99.90;;;-143.32;100.00;97753.44;4955701;29;20441;-91
2021/01/08 22:36:25;;;;;;;44.53;20.93;;;0.90;99.90;;;-143.32;100.00;97759.59;4954903;29;20477;-89
2021/01/08 22:38:52;;;;;;;42.43;20.00;;;0.90;99.90;;;-143.32;100.00;97786.19;4954948;29;20781;-89
2021/01/08 22:41:19;;;;;;;41.90;19.90;;;0.80;99.90;;;-143.32;100.00;97767.75;4955480;29;20456;-89
2021/01/08 22:59:58;;;;;;;36.53;19.07;;;0.80;99.90;;;-143.32;100.00;97728.88;5892264;23;20491;-89
2021/01/08 23:02:25;;;;;;;39.77;18.90;;;0.80;99.90;;;-143.32;100.00;97761.63;4958946;28;20448;-89
2021/01/08 23:04:54;;;;;;;40.57;18.80;;;0.80;99.90;;;-143.32;100.00;97771.84;5318175;23;20550;-89
2021/01/08 23:07:20;;;;;;;44.27;20.37;;;0.70;99.90;;;-143.32;100.00;97796.41;4977449;28;20459;-88
2021/01/08 23:13:28;;;;;;;33.63;17.93;;;0.90;99.90;;;-143.32;100.00;97778.00;4958424;29;20828;-87
2021/01/08 23:44:29;;;;;;;34.90;16.77;;;0.90;99.90;;;-143.32;100.00;97769.81;5389622;23;20544;-90
2021/01/08 23:46:59;;;;;;;37.20;16.70;;;0.90;99.90;;;-143.32;100.00;97792.31;4977425;28;20756;-90
2021/01/08 23:49:28;;;;;;;33.90;17.27;;;0.90;99.90;;;-143.32;100.00;97724.81;4976597;28;20579;-90
2021/01/08 23:51:59;;;;;;;32.50;17.37;;;0.90;99.90;;;-143.32;100.00;97782.09;4976909;28;20851;-89
2021/01/08 23:54:26;;;;;;;35.00;16.40;;;1.00;99.90;;;-143.32;100.00;97773.91;4976934;28;20444;-88
2021/01/08 23:56:56;;;;;;;35.33;17.50;;;0.90;99.90;;;-143.32;100.00;97735.03;4977011;28;20471;-89
2021/01/08 23:59:23;;;;;;;35.07;16.43;;;0.90;99.90;;;-143.32;100.00;97759.59;4976830;28;20871;-89
